sensor_id;sensor_type;location;lat;lon;timestamp;P1;durP1;ratioP1;P2;durP2;ratioP2
68484;SDS011;55472;50.060;21.960;2023-03-05T00:00:12;5.10;;;1.10;;
68484;SDS011;55472;50.060;21.960;2023-03-05T00:03:00;4.07;;;0.95;;
68484;SDS011;55472;50.060;21.960;2023-03-05T00:05:26;3.88;;;0.98;;
68484;SDS011;55472;50.060;21.960;2023-03-05T00:07:52;3.65;;;0.70;;
68484;SDS011;55472;50.060;21.960;2023-03-05T00:10:18;5.65;;;0.90;;
68484;SDS011;55472;50.060;21.960;2023-03-05T00:12:45;4.10;;;0.70;;
68484;SDS011;55472;50.060;21.960;2023-03-05T00:15:11;4.07;;;1.00;;
68484;SDS011;55472;50.060;21.960;2023-03-05T00:17:38;5.38;;;0.80;;
68484;SDS011;55472;50.060;21.960;2023-03-05T00:20:04;6.78;;;0.85;;
68484;SDS011;55472;50.060;21.960;2023-03-05T00:22:32;3.55;;;0.68;;
68484;SDS011;55472;50.060;21.960;2023-03-05T00:25:00;5.07;;;0.80;;
68484;SDS011;55472;50.060;21.960;2023-03-05T00:27:29;4.80;;;1.13;;
68484;SDS011;55472;50.060;21.960;2023-03-05T00:29:56;4.03;;;0.80;;
68484;SDS011;55472;50.060;21.960;2023-03-05T00:32:22;6.25;;;1.15;;
68484;SDS011;55472;50.060;21.960;2023-03-05T00:34:48;8.95;;;1.00;;
68484;SDS011;55472;50.060;21.960;2023-03-05T00:37:15;4.40;;;0.80;;
68484;SDS011;55472;50.060;21.960;2023-03-05T00:39:42;4.25;;;0.60;;
68484;SDS011;55472;50.060;21.960;2023-03-05T00:42:08;5.25;;;1.02;;
68484;SDS011;55472;50.060;21.960;2023-03-05T00:44:34;4.75;;;0.88;;
68484;SDS011;55472;50.060;21.960;2023-03-05T00:47:00;4.72;;;0.73;;
68484;SDS011;55472;50.060;21.960;2023-03-05T00:49:27;4.73;;;0.70;;
68484;SDS011;55472;50.060;21.960;2023-03-05T00:51:53;4.82;;;0.82;;
68484;SDS011;55472;50.060;21.960;2023-03-05T00:54:19;6.85;;;1.30;;
68484;SDS011;55472;50.060;21.960;2023-03-05T00:56:46;6.40;;;0.95;;
68484;SDS011;55472;50.060;21.960;2023-03-05T00:59:13;8.13;;;1.08;;
68484;SDS011;55472;50.060;21.960;2023-03-05T01:01:39;5.27;;;0.90;;
68484;SDS011;55472;50.060;21.960;2023-03-05T01:04:06;2.83;;;0.77;;
68484;SDS011;55472;50.060;21.960;2023-03-05T01:06:32;4.95;;;1.10;;
68484;SDS011;55472;50.060;21.960;2023-03-05T01:08:58;3.50;;;0.88;;
68484;SDS011;55472;50.060;21.960;2023-03-05T01:11:24;4.43;;;1.00;;
68484;SDS011;55472;50.060;21.960;2023-03-05T01:13:51;5.57;;;1.30;;
68484;SDS011;55472;50.060;21.960;2023-03-05T01:16:17;4.35;;;0.70;;
68484;SDS011;55472;50.060;21.960;2023-03-05T01:18:43;5.20;;;0.82;;
68484;SDS011;55472;50.060;21.960;2023-03-05T01:21:10;5.13;;;0.95;;
68484;SDS011;55472;50.060;21.960;2023-03-05T01:23:36;4.43;;;0.90;;
68484;SDS011;55472;50.060;21.960;2023-03-05T01:26:02;4.20;;;1.00;;
68484;SDS011;55472;50.060;21.960;2023-03-05T01:28:29;3.90;;;0.90;;
68484;SDS011;55472;50.060;21.960;2023-03-05T01:30:56;4.40;;;1.00;;
68484;SDS011;55472;50.060;21.960;2023-03-05T01:33:23;4.85;;;0.85;;
68484;SDS011;55472;50.060;21.960;2023-03-05T01:35:49;3.22;;;0.85;;
68484;SDS011;55472;50.060;21.960;2023-03-05T01:38:16;3.67;;;0.70;;
68484;SDS011;55472;50.060;21.960;2023-03-05T01:40:42;5.55;;;1.05;;
68484;SDS011;55472;50.060;21.960;2023-03-05T01:45:35;5.07;;;1.23;;
68484;SDS011;55472;50.060;21.960;2023-03-05T01:48:02;6.97;;;1.10;;
68484;SDS011;55472;50.060;21.960;2023-03-05T01:50:28;7.30;;;1.00;;
68484;SDS011;55472;50.060;21.960;2023-03-05T01:52:57;5.90;;;0.93;;
68484;SDS011;55472;50.060;21.960;2023-03-05T01:55:27;14.18;;;2.65;;
68484;SDS011;55472;50.060;21.960;2023-03-05T01:58:02;9.60;;;2.38;;
68484;SDS011;55472;50.060;21.960;2023-03-05T02:00:33;15.85;;;3.58;;
68484;SDS011;55472;50.060;21.960;2023-03-05T02:03:05;16.73;;;3.90;;
68484;SDS011;55472;50.060;21.960;2023-03-05T02:05:35;15.05;;;4.28;;
68484;SDS011;55472;50.060;21.960;2023-03-05T02:08:07;11.73;;;3.38;;
68484;SDS011;55472;50.060;21.960;2023-03-05T02:10:36;11.35;;;3.30;;
68484;SDS011;55472;50.060;21.960;2023-03-05T02:13:10;12.13;;;3.25;;
68484;SDS011;55472;50.060;21.960;2023-03-05T02:16:00;12.33;;;3.17;;
68484;SDS011;55472;50.060;21.960;2023-03-05T02:18:27;10.80;;;2.50;;
68484;SDS011;55472;50.060;21.960;2023-03-05T02:23:23;13.95;;;3.15;;
68484;SDS011;55472;50.060;21.960;2023-03-05T02:25:52;12.23;;;3.05;;
68484;SDS011;55472;50.060;21.960;2023-03-05T02:28:25;12.80;;;3.10;;
68484;SDS011;55472;50.060;21.960;2023-03-05T02:31:16;18.27;;;4.40;;
68484;SDS011;55472;50.060;21.960;2023-03-05T02:33:46;21.65;;;5.18;;
68484;SDS011;55472;50.060;21.960;2023-03-05T02:36:13;22.00;;;4.95;;
68484;SDS011;55472;50.060;21.960;2023-03-05T02:38:40;21.60;;;4.78;;
68484;SDS011;55472;50.060;21.960;2023-03-05T02:41:07;28.87;;;5.83;;
68484;SDS011;55472;50.060;21.960;2023-03-05T02:43:34;22.80;;;5.65;;
68484;SDS011;55472;50.060;21.960;2023-03-05T02:46:01;20.30;;;5.20;;
68484;SDS011;55472;50.060;21.960;2023-03-05T02:48:28;22.10;;;5.93;;
68484;SDS011;55472;50.060;21.960;2023-03-05T02:50:54;18.70;;;4.43;;
68484;SDS011;55472;50.060;21.960;2023-03-05T02:53:22;22.20;;;5.27;;
68484;SDS011;55472;50.060;21.960;2023-03-05T02:55:48;26.30;;;5.35;;
68484;SDS011;55472;50.060;21.960;2023-03-05T02:58:15;22.20;;;5.88;;
68484;SDS011;55472;50.060;21.960;2023-03-05T03:00:42;24.88;;;5.97;;
68484;SDS011;55472;50.060;21.960;2023-03-05T03:03:08;21.63;;;5.65;;
68484;SDS011;55472;50.060;21.960;2023-03-05T03:05:35;25.00;;;5.93;;
68484;SDS011;55472;50.060;21.960;2023-03-05T03:08:02;15.55;;;5.35;;
68484;SDS011;55472;50.060;21.960;2023-03-05T03:10:28;17.17;;;5.18;;
68484;SDS011;55472;50.060;21.960;2023-03-05T03:12:55;21.25;;;5.22;;
68484;SDS011;55472;50.060;21.960;2023-03-05T03:15:21;26.25;;;5.63;;
68484;SDS011;55472;50.060;21.960;2023-03-05T03:17:48;21.13;;;5.60;;
68484;SDS011;55472;50.060;21.960;2023-03-05T03:20:15;20.85;;;4.72;;
68484;SDS011;55472;50.060;21.960;2023-03-05T03:22:43;17.52;;;4.45;;
68484;SDS011;55472;50.060;21.960;2023-03-05T03:25:12;16.02;;;3.97;;
68484;SDS011;55472;50.060;21.960;2023-03-05T03:27:44;16.02;;;4.13;;
68484;SDS011;55472;50.060;21.960;2023-03-05T03:30:10;15.80;;;4.33;;
68484;SDS011;55472;50.060;21.960;2023-03-05T03:32:37;20.02;;;4.07;;
68484;SDS011;55472;50.060;21.960;2023-03-05T03:35:04;15.65;;;3.65;;
68484;SDS011;55472;50.060;21.960;2023-03-05T03:37:31;14.88;;;4.25;;
68484;SDS011;55472;50.060;21.960;2023-03-05T03:39:57;18.23;;;5.30;;
68484;SDS011;55472;50.060;21.960;2023-03-05T03:42:24;14.20;;;4.57;;
68484;SDS011;55472;50.060;21.960;2023-03-05T03:44:50;19.42;;;4.43;;
68484;SDS011;55472;50.060;21.960;2023-03-05T03:47:17;20.02;;;4.88;;
68484;SDS011;55472;50.060;21.960;2023-03-05T03:49:43;17.90;;;5.50;;
68484;SDS011;55472;50.060;21.960;2023-03-05T03:52:09;27.45;;;7.45;;
68484;SDS011;55472;50.060;21.960;2023-03-05T03:54:36;32.63;;;7.47;;
68484;SDS011;55472;50.060;21.960;2023-03-05T03:57:02;23.35;;;6.68;;
68484;SDS011;55472;50.060;21.960;2023-03-05T03:59:28;29.42;;;7.88;;
68484;SDS011;55472;50.060;21.960;2023-03-05T04:01:55;29.65;;;7.82;;
68484;SDS011;55472;50.060;21.960;2023-03-05T04:04:21;36.20;;;8.70;;
68484;SDS011;55472;50.060;21.960;2023-03-05T04:06:47;29.60;;;8.10;;
68484;SDS011;55472;50.060;21.960;2023-03-05T04:09:13;31.58;;;8.68;;
68484;SDS011;55472;50.060;21.960;2023-03-05T04:11:40;35.30;;;9.07;;
68484;SDS011;55472;50.060;21.960;2023-03-05T04:14:06;38.58;;;9.43;;
68484;SDS011;55472;50.060;21.960;2023-03-05T04:16:32;35.38;;;10.63;;
68484;SDS011;55472;50.060;21.960;2023-03-05T04:18:58;35.87;;;9.80;;
68484;SDS011;55472;50.060;21.960;2023-03-05T04:21:25;39.50;;;9.70;;
68484;SDS011;55472;50.060;21.960;2023-03-05T04:23:51;40.42;;;9.40;;
68484;SDS011;55472;50.060;21.960;2023-03-05T04:26:17;31.58;;;7.93;;
68484;SDS011;55472;50.060;21.960;2023-03-05T04:28:43;38.10;;;9.90;;
68484;SDS011;55472;50.060;21.960;2023-03-05T04:31:11;32.57;;;9.17;;
68484;SDS011;55472;50.060;21.960;2023-03-05T04:33:37;39.47;;;10.00;;
68484;SDS011;55472;50.060;21.960;2023-03-05T04:36:03;34.03;;;10.55;;
68484;SDS011;55472;50.060;21.960;2023-03-05T04:38:30;29.92;;;9.30;;
68484;SDS011;55472;50.060;21.960;2023-03-05T04:40:56;33.35;;;9.80;;
68484;SDS011;55472;50.060;21.960;2023-03-05T04:43:22;37.57;;;10.43;;
68484;SDS011;55472;50.060;21.960;2023-03-05T04:45:49;48.20;;;11.73;;
68484;SDS011;55472;50.060;21.960;2023-03-05T04:48:15;50.22;;;11.60;;
68484;SDS011;55472;50.060;21.960;2023-03-05T04:50:41;56.63;;;14.43;;
68484;SDS011;55472;50.060;21.960;2023-03-05T04:53:07;66.95;;;16.50;;
68484;SDS011;55472;50.060;21.960;2023-03-05T04:55:34;92.77;;;21.60;;
68484;SDS011;55472;50.060;21.960;2023-03-05T04:58:00;89.05;;;22.40;;
68484;SDS011;55472;50.060;21.960;2023-03-05T05:00:26;92.50;;;23.33;;
68484;SDS011;55472;50.060;21.960;2023-03-05T05:02:53;90.43;;;22.77;;
68484;SDS011;55472;50.060;21.960;2023-03-05T05:05:20;90.22;;;22.52;;
68484;SDS011;55472;50.060;21.960;2023-03-05T05:07:52;80.20;;;20.50;;
68484;SDS011;55472;50.060;21.960;2023-03-05T05:10:21;82.05;;;19.80;;
68484;SDS011;55472;50.060;21.960;2023-03-05T05:12:49;89.97;;;19.95;;
68484;SDS011;55472;50.060;21.960;2023-03-05T05:15:15;78.95;;;19.23;;
68484;SDS011;55472;50.060;21.960;2023-03-05T05:17:42;70.55;;;18.08;;
68484;SDS011;55472;50.060;21.960;2023-03-05T05:20:09;79.47;;;19.23;;
68484;SDS011;55472;50.060;21.960;2023-03-05T05:22:37;65.40;;;16.45;;
68484;SDS011;55472;50.060;21.960;2023-03-05T05:25:04;54.55;;;16.60;;
68484;SDS011;55472;50.060;21.960;2023-03-05T05:27:31;60.72;;;15.00;;
68484;SDS011;55472;50.060;21.960;2023-03-05T05:29:57;60.67;;;15.18;;
68484;SDS011;55472;50.060;21.960;2023-03-05T05:32:24;52.97;;;13.30;;
68484;SDS011;55472;50.060;21.960;2023-03-05T05:34:53;46.08;;;13.15;;
68484;SDS011;55472;50.060;21.960;2023-03-05T05:37:22;41.78;;;11.65;;
68484;SDS011;55472;50.060;21.960;2023-03-05T05:39:49;38.47;;;10.48;;
68484;SDS011;55472;50.060;21.960;2023-03-05T05:42:16;32.28;;;8.93;;
68484;SDS011;55472;50.060;21.960;2023-03-05T05:44:44;35.53;;;9.30;;
68484;SDS011;55472;50.060;21.960;2023-03-05T05:47:12;34.72;;;9.20;;
68484;SDS011;55472;50.060;21.960;2023-03-05T05:49:40;35.55;;;9.52;;
68484;SDS011;55472;50.060;21.960;2023-03-05T05:52:06;29.02;;;9.15;;
68484;SDS011;55472;50.060;21.960;2023-03-05T05:54:33;47.10;;;12.80;;
68484;SDS011;55472;50.060;21.960;2023-03-05T05:56:59;53.57;;;15.37;;
68484;SDS011;55472;50.060;21.960;2023-03-05T05:59:25;61.83;;;17.63;;
68484;SDS011;55472;50.060;21.960;2023-03-05T06:01:52;50.95;;;14.15;;
68484;SDS011;55472;50.060;21.960;2023-03-05T06:04:18;35.95;;;11.73;;
68484;SDS011;55472;50.060;21.960;2023-03-05T06:06:44;36.45;;;8.35;;
68484;SDS011;55472;50.060;21.960;2023-03-05T06:09:11;29.33;;;8.50;;
68484;SDS011;55472;50.060;21.960;2023-03-05T06:11:37;30.20;;;8.65;;
68484;SDS011;55472;50.060;21.960;2023-03-05T06:14:03;29.85;;;8.98;;
68484;SDS011;55472;50.060;21.960;2023-03-05T06:16:31;34.03;;;10.80;;
68484;SDS011;55472;50.060;21.960;2023-03-05T06:18:58;33.92;;;9.13;;
68484;SDS011;55472;50.060;21.960;2023-03-05T06:21:28;32.63;;;9.10;;
68484;SDS011;55472;50.060;21.960;2023-03-05T06:23:55;26.83;;;7.78;;
68484;SDS011;55472;50.060;21.960;2023-03-05T06:26:23;24.00;;;6.38;;
68484;SDS011;55472;50.060;21.960;2023-03-05T06:28:50;18.67;;;6.40;;
68484;SDS011;55472;50.060;21.960;2023-03-05T06:31:21;18.48;;;5.50;;
68484;SDS011;55472;50.060;21.960;2023-03-05T06:33:56;10.77;;;4.13;;
68484;SDS011;55472;50.060;21.960;2023-03-05T06:36:27;10.48;;;3.42;;
68484;SDS011;55472;50.060;21.960;2023-03-05T06:38:55;13.73;;;3.50;;
68484;SDS011;55472;50.060;21.960;2023-03-05T06:41:26;10.57;;;3.42;;
68484;SDS011;55472;50.060;21.960;2023-03-05T06:43:55;14.52;;;3.35;;
68484;SDS011;55472;50.060;21.960;2023-03-05T06:46:27;9.03;;;2.93;;
68484;SDS011;55472;50.060;21.960;2023-03-05T06:48:56;17.35;;;3.53;;
68484;SDS011;55472;50.060;21.960;2023-03-05T06:51:33;17.50;;;3.92;;
68484;SDS011;55472;50.060;21.960;2023-03-05T06:54:08;12.30;;;3.22;;
68484;SDS011;55472;50.060;21.960;2023-03-05T06:56:39;14.00;;;3.80;;
68484;SDS011;55472;50.060;21.960;2023-03-05T06:59:09;8.87;;;2.80;;
68484;SDS011;55472;50.060;21.960;2023-03-05T07:01:37;12.05;;;3.00;;
68484;SDS011;55472;50.060;21.960;2023-03-05T07:04:04;10.48;;;2.97;;
68484;SDS011;55472;50.060;21.960;2023-03-05T07:06:32;11.07;;;2.92;;
68484;SDS011;55472;50.060;21.960;2023-03-05T07:09:03;10.85;;;3.53;;
68484;SDS011;55472;50.060;21.960;2023-03-05T07:11:31;10.13;;;3.30;;
68484;SDS011;55472;50.060;21.960;2023-03-05T07:13:58;12.25;;;3.42;;
68484;SDS011;55472;50.060;21.960;2023-03-05T07:16:26;11.18;;;3.70;;
68484;SDS011;55472;50.060;21.960;2023-03-05T07:18:55;13.25;;;3.78;;
68484;SDS011;55472;50.060;21.960;2023-03-05T07:21:24;11.07;;;3.47;;
68484;SDS011;55472;50.060;21.960;2023-03-05T07:23:53;13.23;;;3.70;;
68484;SDS011;55472;50.060;21.960;2023-03-05T07:26:21;12.90;;;3.70;;
68484;SDS011;55472;50.060;21.960;2023-03-05T07:28:49;14.77;;;3.80;;
68484;SDS011;55472;50.060;21.960;2023-03-05T07:31:16;11.88;;;3.30;;
68484;SDS011;55472;50.060;21.960;2023-03-05T07:33:46;8.50;;;3.10;;
68484;SDS011;55472;50.060;21.960;2023-03-05T07:36:14;15.37;;;4.03;;
68484;SDS011;55472;50.060;21.960;2023-03-05T07:38:41;13.00;;;4.00;;
68484;SDS011;55472;50.060;21.960;2023-03-05T07:41:09;10.52;;;3.50;;
68484;SDS011;55472;50.060;21.960;2023-03-05T07:43:38;12.43;;;2.67;;
68484;SDS011;55472;50.060;21.960;2023-03-05T07:46:08;11.93;;;3.28;;
68484;SDS011;55472;50.060;21.960;2023-03-05T07:48:36;13.57;;;3.60;;
68484;SDS011;55472;50.060;21.960;2023-03-05T07:51:04;13.45;;;3.65;;
68484;SDS011;55472;50.060;21.960;2023-03-05T07:53:39;11.23;;;3.95;;
68484;SDS011;55472;50.060;21.960;2023-03-05T07:56:07;8.73;;;2.67;;
68484;SDS011;55472;50.060;21.960;2023-03-05T07:58:35;8.05;;;2.90;;
68484;SDS011;55472;50.060;21.960;2023-03-05T08:01:01;10.80;;;3.00;;
68484;SDS011;55472;50.060;21.960;2023-03-05T08:03:28;12.13;;;2.40;;
68484;SDS011;55472;50.060;21.960;2023-03-05T08:05:54;12.32;;;3.63;;
68484;SDS011;55472;50.060;21.960;2023-03-05T08:08:21;9.65;;;3.13;;
68484;SDS011;55472;50.060;21.960;2023-03-05T08:10:47;11.07;;;3.03;;
68484;SDS011;55472;50.060;21.960;2023-03-05T08:13:13;13.87;;;3.40;;
68484;SDS011;55472;50.060;21.960;2023-03-05T08:15:39;11.30;;;2.88;;
68484;SDS011;55472;50.060;21.960;2023-03-05T08:18:06;10.30;;;2.85;;
68484;SDS011;55472;50.060;21.960;2023-03-05T08:20:35;12.57;;;2.90;;
68484;SDS011;55472;50.060;21.960;2023-03-05T08:23:02;13.20;;;2.97;;
68484;SDS011;55472;50.060;21.960;2023-03-05T08:25:29;11.47;;;2.67;;
68484;SDS011;55472;50.060;21.960;2023-03-05T08:27:56;10.23;;;2.60;;
68484;SDS011;55472;50.060;21.960;2023-03-05T08:30:22;9.43;;;2.63;;
68484;SDS011;55472;50.060;21.960;2023-03-05T08:32:51;12.20;;;2.90;;
68484;SDS011;55472;50.060;21.960;2023-03-05T08:35:21;11.95;;;2.42;;
68484;SDS011;55472;50.060;21.960;2023-03-05T08:37:48;12.13;;;2.73;;
68484;SDS011;55472;50.060;21.960;2023-03-05T08:40:14;8.10;;;1.92;;
68484;SDS011;55472;50.060;21.960;2023-03-05T08:42:44;9.85;;;2.38;;
68484;SDS011;55472;50.060;21.960;2023-03-05T08:45:11;7.93;;;2.28;;
68484;SDS011;55472;50.060;21.960;2023-03-05T08:47:38;9.30;;;2.20;;
68484;SDS011;55472;50.060;21.960;2023-03-05T08:50:04;9.03;;;2.37;;
68484;SDS011;55472;50.060;21.960;2023-03-05T08:52:31;13.77;;;3.47;;
68484;SDS011;55472;50.060;21.960;2023-03-05T08:54:57;11.32;;;2.45;;
68484;SDS011;55472;50.060;21.960;2023-03-05T08:57:24;18.73;;;2.83;;
68484;SDS011;55472;50.060;21.960;2023-03-05T08:59:50;8.98;;;2.42;;
68484;SDS011;55472;50.060;21.960;2023-03-05T09:02:16;7.70;;;2.40;;
68484;SDS011;55472;50.060;21.960;2023-03-05T09:04:43;8.73;;;2.17;;
68484;SDS011;55472;50.060;21.960;2023-03-05T09:07:09;7.30;;;1.90;;
68484;SDS011;55472;50.060;21.960;2023-03-05T09:09:36;8.88;;;1.92;;
68484;SDS011;55472;50.060;21.960;2023-03-05T09:12:02;12.02;;;2.30;;
68484;SDS011;55472;50.060;21.960;2023-03-05T09:14:28;8.87;;;2.17;;
68484;SDS011;55472;50.060;21.960;2023-03-05T09:16:55;10.80;;;2.58;;
68484;SDS011;55472;50.060;21.960;2023-03-05T09:19:21;9.38;;;2.47;;
68484;SDS011;55472;50.060;21.960;2023-03-05T09:21:48;6.38;;;2.03;;
68484;SDS011;55472;50.060;21.960;2023-03-05T09:24:15;9.15;;;2.00;;
68484;SDS011;55472;50.060;21.960;2023-03-05T09:26:41;10.53;;;2.90;;
68484;SDS011;55472;50.060;21.960;2023-03-05T09:29:08;9.20;;;2.40;;
68484;SDS011;55472;50.060;21.960;2023-03-05T09:31:35;9.63;;;2.65;;
68484;SDS011;55472;50.060;21.960;2023-03-05T09:34:01;10.65;;;2.85;;
68484;SDS011;55472;50.060;21.960;2023-03-05T09:36:29;8.93;;;2.10;;
68484;SDS011;55472;50.060;21.960;2023-03-05T09:38:56;8.47;;;2.30;;
68484;SDS011;55472;50.060;21.960;2023-03-05T09:50:38;12.00;;;2.53;;
68484;SDS011;55472;50.060;21.960;2023-03-05T09:53:17;10.87;;;2.47;;
68484;SDS011;55472;50.060;21.960;2023-03-05T09:55:49;9.57;;;2.60;;
68484;SDS011;55472;50.060;21.960;2023-03-05T09:58:32;8.13;;;2.60;;
68484;SDS011;55472;50.060;21.960;2023-03-05T10:01:18;8.05;;;2.05;;
68484;SDS011;55472;50.060;21.960;2023-03-05T10:04:03;11.75;;;2.33;;
68484;SDS011;55472;50.060;21.960;2023-03-05T10:15:23;12.80;;;3.40;;
68484;SDS011;55472;50.060;21.960;2023-03-05T10:18:19;29.00;;;6.63;;
68484;SDS011;55472;50.060;21.960;2023-03-05T10:21:17;15.23;;;3.58;;
68484;SDS011;55472;50.060;21.960;2023-03-05T10:38:06;13.88;;;4.00;;
68484;SDS011;55472;50.060;21.960;2023-03-05T10:40:53;12.00;;;3.47;;
68484;SDS011;55472;50.060;21.960;2023-03-05T10:43:30;10.43;;;3.40;;
68484;SDS011;55472;50.060;21.960;2023-03-05T10:46:24;14.75;;;3.53;;
68484;SDS011;55472;50.060;21.960;2023-03-05T10:49:20;7.25;;;2.40;;
68484;SDS011;55472;50.060;21.960;2023-03-05T10:52:05;9.77;;;2.70;;
68484;SDS011;55472;50.060;21.960;2023-03-05T10:54:43;9.80;;;3.00;;
68484;SDS011;55472;50.060;21.960;2023-03-05T10:57:20;8.85;;;2.90;;
68484;SDS011;55472;50.060;21.960;2023-03-05T10:59:50;12.05;;;3.13;;
68484;SDS011;55472;50.060;21.960;2023-03-05T11:02:34;11.40;;;3.00;;
68484;SDS011;55472;50.060;21.960;2023-03-05T11:11:09;16.13;;;3.85;;
68484;SDS011;55472;50.060;21.960;2023-03-05T11:19:43;14.10;;;4.50;;
68484;SDS011;55472;50.060;21.960;2023-03-05T11:27:49;16.15;;;3.80;;
68484;SDS011;55472;50.060;21.960;2023-03-05T11:30:28;11.38;;;3.13;;
68484;SDS011;55472;50.060;21.960;2023-03-05T11:33:12;12.85;;;3.20;;
68484;SDS011;55472;50.060;21.960;2023-03-05T11:35:52;14.77;;;3.90;;
68484;SDS011;55472;50.060;21.960;2023-03-05T11:38:43;14.57;;;3.80;;
68484;SDS011;55472;50.060;21.960;2023-03-05T11:46:59;12.10;;;3.30;;
68484;SDS011;55472;50.060;21.960;2023-03-05T11:49:38;8.13;;;2.80;;
68484;SDS011;55472;50.060;21.960;2023-03-05T11:52:11;11.07;;;3.17;;
68484;SDS011;55472;50.060;21.960;2023-03-05T11:55:02;9.43;;;2.85;;
68484;SDS011;55472;50.060;21.960;2023-03-05T12:00:28;10.07;;;3.58;;
68484;SDS011;55472;50.060;21.960;2023-03-05T12:02:58;13.23;;;3.50;;
68484;SDS011;55472;50.060;21.960;2023-03-05T12:05:29;20.77;;;5.20;;
68484;SDS011;55472;50.060;21.960;2023-03-05T12:08:00;21.83;;;5.90;;
68484;SDS011;55472;50.060;21.960;2023-03-05T12:10:27;12.32;;;4.70;;
68484;SDS011;55472;50.060;21.960;2023-03-05T12:13:14;15.18;;;4.90;;
68484;SDS011;55472;50.060;21.960;2023-03-05T12:18:56;17.55;;;4.97;;
68484;SDS011;55472;50.060;21.960;2023-03-05T12:21:38;11.68;;;3.88;;
68484;SDS011;55472;50.060;21.960;2023-03-05T12:32:02;13.77;;;3.58;;
68484;SDS011;55472;50.060;21.960;2023-03-05T12:47:44;16.05;;;4.70;;
68484;SDS011;55472;50.060;21.960;2023-03-05T12:53:10;15.48;;;4.53;;
68484;SDS011;55472;50.060;21.960;2023-03-05T12:58:46;16.33;;;4.93;;
68484;SDS011;55472;50.060;21.960;2023-03-05T13:04:15;14.32;;;4.22;;
68484;SDS011;55472;50.060;21.960;2023-03-05T13:06:45;19.23;;;5.32;;
68484;SDS011;55472;50.060;21.960;2023-03-05T13:09:24;19.20;;;6.03;;
68484;SDS011;55472;50.060;21.960;2023-03-05T13:11:54;33.47;;;10.10;;
68484;SDS011;55472;50.060;21.960;2023-03-05T13:20:24;32.40;;;11.88;;
68484;SDS011;55472;50.060;21.960;2023-03-05T13:25:43;20.70;;;5.30;;
68484;SDS011;55472;50.060;21.960;2023-03-05T13:28:12;27.13;;;7.82;;
68484;SDS011;55472;50.060;21.960;2023-03-05T13:30:50;27.45;;;7.68;;
68484;SDS011;55472;50.060;21.960;2023-03-05T13:33:28;18.40;;;5.85;;
68484;SDS011;55472;50.060;21.960;2023-03-05T13:35:58;22.27;;;5.83;;
68484;SDS011;55472;50.060;21.960;2023-03-05T13:41:05;18.02;;;4.93;;
68484;SDS011;55472;50.060;21.960;2023-03-05T13:43:41;14.88;;;3.95;;
68484;SDS011;55472;50.060;21.960;2023-03-05T13:51:53;10.68;;;2.35;;
68484;SDS011;55472;50.060;21.960;2023-03-05T13:54:25;9.40;;;2.60;;
68484;SDS011;55472;50.060;21.960;2023-03-05T13:57:02;9.35;;;2.53;;
68484;SDS011;55472;50.060;21.960;2023-03-05T13:59:33;11.55;;;2.60;;
68484;SDS011;55472;50.060;21.960;2023-03-05T14:02:16;11.43;;;2.60;;
68484;SDS011;55472;50.060;21.960;2023-03-05T14:04:44;9.07;;;2.45;;
68484;SDS011;55472;50.060;21.960;2023-03-05T14:13:03;12.20;;;3.10;;
68484;SDS011;55472;50.060;21.960;2023-03-05T14:15:37;10.33;;;3.43;;
68484;SDS011;55472;50.060;21.960;2023-03-05T14:20:36;14.20;;;5.20;;
68484;SDS011;55472;50.060;21.960;2023-03-05T14:26:31;20.08;;;7.63;;
68484;SDS011;55472;50.060;21.960;2023-03-05T14:29:13;25.03;;;7.50;;
68484;SDS011;55472;50.060;21.960;2023-03-05T14:31:53;21.73;;;6.93;;
68484;SDS011;55472;50.060;21.960;2023-03-05T14:34:37;23.17;;;8.77;;
68484;SDS011;55472;50.060;21.960;2023-03-05T14:37:14;27.50;;;9.30;;
68484;SDS011;55472;50.060;21.960;2023-03-05T14:39:50;29.20;;;8.90;;
68484;SDS011;55472;50.060;21.960;2023-03-05T14:42:31;25.17;;;8.67;;
68484;SDS011;55472;50.060;21.960;2023-03-05T14:47:41;27.45;;;9.57;;
68484;SDS011;55472;50.060;21.960;2023-03-05T14:50:08;22.80;;;7.88;;
68484;SDS011;55472;50.060;21.960;2023-03-05T14:53:00;21.33;;;7.28;;
68484;SDS011;55472;50.060;21.960;2023-03-05T14:55:32;23.43;;;7.37;;
68484;SDS011;55472;50.060;21.960;2023-03-05T14:58:03;25.10;;;8.15;;
68484;SDS011;55472;50.060;21.960;2023-03-05T15:00:37;22.00;;;7.70;;
68484;SDS011;55472;50.060;21.960;2023-03-05T15:03:03;19.15;;;7.05;;
68484;SDS011;55472;50.060;21.960;2023-03-05T15:05:29;20.52;;;7.70;;
68484;SDS011;55472;50.060;21.960;2023-03-05T15:07:56;22.90;;;6.40;;
68484;SDS011;55472;50.060;21.960;2023-03-05T15:10:23;18.58;;;6.78;;
68484;SDS011;55472;50.060;21.960;2023-03-05T15:12:50;19.05;;;6.00;;
68484;SDS011;55472;50.060;21.960;2023-03-05T15:15:18;21.08;;;7.60;;
68484;SDS011;55472;50.060;21.960;2023-03-05T15:17:47;21.88;;;6.75;;
68484;SDS011;55472;50.060;21.960;2023-03-05T15:20:20;16.23;;;6.00;;
68484;SDS011;55472;50.060;21.960;2023-03-05T15:22:52;15.23;;;5.10;;
68484;SDS011;55472;50.060;21.960;2023-03-05T15:25:19;14.38;;;5.43;;
68484;SDS011;55472;50.060;21.960;2023-03-05T15:27:48;15.20;;;5.07;;
68484;SDS011;55472;50.060;21.960;2023-03-05T15:30:22;14.10;;;4.80;;
68484;SDS011;55472;50.060;21.960;2023-03-05T15:32:51;15.50;;;4.17;;
68484;SDS011;55472;50.060;21.960;2023-03-05T15:35:20;9.95;;;3.90;;
68484;SDS011;55472;50.060;21.960;2023-03-05T15:37:48;17.00;;;5.53;;
68484;SDS011;55472;50.060;21.960;2023-03-05T15:40:15;15.18;;;5.03;;
68484;SDS011;55472;50.060;21.960;2023-03-05T15:42:43;15.20;;;4.57;;
68484;SDS011;55472;50.060;21.960;2023-03-05T15:45:09;16.07;;;5.00;;
68484;SDS011;55472;50.060;21.960;2023-03-05T15:47:35;13.43;;;5.00;;
68484;SDS011;55472;50.060;21.960;2023-03-05T15:50:02;15.15;;;4.82;;
68484;SDS011;55472;50.060;21.960;2023-03-05T15:52:28;14.70;;;5.05;;
68484;SDS011;55472;50.060;21.960;2023-03-05T15:54:55;13.30;;;5.20;;
68484;SDS011;55472;50.060;21.960;2023-03-05T15:57:21;12.07;;;4.57;;
68484;SDS011;55472;50.060;21.960;2023-03-05T15:59:48;14.20;;;5.03;;
68484;SDS011;55472;50.060;21.960;2023-03-05T16:02:14;14.48;;;5.25;;
68484;SDS011;55472;50.060;21.960;2023-03-05T16:04:40;16.00;;;5.55;;
68484;SDS011;55472;50.060;21.960;2023-03-05T16:07:07;14.27;;;5.38;;
68484;SDS011;55472;50.060;21.960;2023-03-05T16:09:35;17.30;;;6.00;;
68484;SDS011;55472;50.060;21.960;2023-03-05T16:12:07;18.45;;;6.32;;
68484;SDS011;55472;50.060;21.960;2023-03-05T16:14:37;16.30;;;6.10;;
68484;SDS011;55472;50.060;21.960;2023-03-05T16:17:05;21.75;;;6.80;;
68484;SDS011;55472;50.060;21.960;2023-03-05T16:19:33;24.17;;;7.43;;
68484;SDS011;55472;50.060;21.960;2023-03-05T16:22:01;29.23;;;8.53;;
68484;SDS011;55472;50.060;21.960;2023-03-05T16:24:28;23.63;;;7.80;;
68484;SDS011;55472;50.060;21.960;2023-03-05T16:26:54;26.40;;;7.78;;
68484;SDS011;55472;50.060;21.960;2023-03-05T16:29:20;20.08;;;7.72;;
68484;SDS011;55472;50.060;21.960;2023-03-05T16:31:46;21.52;;;7.00;;
68484;SDS011;55472;50.060;21.960;2023-03-05T16:34:12;29.50;;;8.63;;
68484;SDS011;55472;50.060;21.960;2023-03-05T16:36:45;24.45;;;8.82;;
68484;SDS011;55472;50.060;21.960;2023-03-05T16:39:13;26.10;;;8.93;;
68484;SDS011;55472;50.060;21.960;2023-03-05T16:41:39;20.40;;;6.95;;
68484;SDS011;55472;50.060;21.960;2023-03-05T16:44:06;19.50;;;6.57;;